createdAt,value
2022-07-28T00:00:46.979Z,54.00
2022-07-28T00:05:50.558Z,54.10
2022-07-28T00:10:55.582Z,54.20
2022-07-28T00:15:59.303Z,54.40
2022-07-28T00:21:03.349Z,54.50
2022-07-28T00:26:09.306Z,54.70
2022-07-28T00:31:13.002Z,54.90
2022-07-28T00:36:17.218Z,55.10
2022-07-28T00:41:23.108Z,55.20
2022-07-28T00:46:26.874Z,55.00
2022-07-28T00:51:30.944Z,55.20
2022-07-28T00:56:36.456Z,55.70
2022-07-28T01:01:40.219Z,56.00
2022-07-28T01:07:17.892Z,56.10
2022-07-28T01:12:35.646Z,56.40
2022-07-28T01:17:45.427Z,56.30
2022-07-28T01:23:05.538Z,56.40
2022-07-28T01:28:25.839Z,56.60
2022-07-28T01:33:35.926Z,56.70
2022-07-28T01:38:40.337Z,56.80
2022-07-28T01:43:48.086Z,56.90
2022-07-28T01:48:54.913Z,57.10
2022-07-28T01:54:01.482Z,57.40
2022-07-28T01:59:09.805Z,57.70
2022-07-28T02:04:16.740Z,58.10
2022-07-28T02:09:23.235Z,58.30
2022-07-28T02:14:29.202Z,58.60
2022-07-28T02:19:35.323Z,58.60
2022-07-28T02:24:39.493Z,58.80
2022-07-28T02:29:51.091Z,59.00
2022-07-28T02:34:59.919Z,59.30
2022-07-28T02:40:05.568Z,59.30
2022-07-28T02:45:13.071Z,59.30
2022-07-28T02:50:22.868Z,59.50
2022-07-28T02:55:27.640Z,59.60
2022-07-28T03:00:31.780Z,59.70
2022-07-28T03:05:37.787Z,59.80
2022-07-28T03:10:41.885Z,59.80
2022-07-28T03:15:45.423Z,59.80
2022-07-28T03:20:50.361Z,59.90
2022-07-28T03:25:58.525Z,60.00
2022-07-28T03:31:06.865Z,60.20
2022-07-28T03:36:17.053Z,60.50
2022-07-28T03:41:22.727Z,60.90
2022-07-28T03:46:27.748Z,61.20
2022-07-28T03:51:32.772Z,61.30
2022-07-28T03:56:36.292Z,61.50
2022-07-28T04:01:39.990Z,61.50
2022-07-28T04:06:45.017Z,61.70
2022-07-28T04:11:48.549Z,61.70
2022-07-28T04:16:52.146Z,61.80
2022-07-28T04:21:57.197Z,62.00
2022-07-28T04:27:00.830Z,62.30
2022-07-28T04:32:04.578Z,62.40
2022-07-28T04:37:09.986Z,62.60
2022-07-28T04:42:13.577Z,62.70
2022-07-28T04:47:17.609Z,63.00
2022-07-28T04:52:23.093Z,63.30
2022-07-28T04:57:28.305Z,63.40
2022-07-28T05:02:31.889Z,63.40
2022-07-28T05:07:37.491Z,63.70
2022-07-28T05:12:41.091Z,64.00
2022-07-28T05:17:44.685Z,64.00
2022-07-28T05:22:53.603Z,63.90
2022-07-28T05:27:57.217Z,63.90
2022-07-28T05:33:01.912Z,64.10
2022-07-28T05:38:10.837Z,64.30
2022-07-28T05:43:15.070Z,64.50
2022-07-28T05:48:19.561Z,64.60
2022-07-28T05:53:24.832Z,64.70
2022-07-28T05:58:28.402Z,64.80
2022-07-28T06:03:38.444Z,64.80
2022-07-28T06:08:48.289Z,65.00
2022-07-28T06:13:53.048Z,64.90
2022-07-28T06:18:56.603Z,64.90
2022-07-28T06:24:01.758Z,64.80
2022-07-28T06:29:05.452Z,64.60
2022-07-28T06:34:08.985Z,64.40
2022-07-28T06:39:14.073Z,64.30
2022-07-28T06:44:17.912Z,64.10
2022-07-28T06:49:21.805Z,64.20
2022-07-28T06:54:26.848Z,64.30
2022-07-28T06:59:30.428Z,64.40
2022-07-28T07:04:34.944Z,64.40
2022-07-28T07:09:40.866Z,64.30
2022-07-28T07:14:44.605Z,64.10
2022-07-28T07:19:48.394Z,64.00
2022-07-28T07:24:56.838Z,63.90
2022-07-28T07:30:01.245Z,63.80
2022-07-28T07:35:05.403Z,63.80
2022-07-28T07:40:11.205Z,63.90
2022-07-28T07:45:15.027Z,64.00
2022-07-28T07:50:18.569Z,63.90
2022-07-28T07:55:23.569Z,63.60
2022-07-28T08:00:29.064Z,63.20
2022-07-28T08:05:35.077Z,62.80
2022-07-28T08:10:41.467Z,62.60
2022-07-28T08:15:45.087Z,62.40
2022-07-28T08:20:48.696Z,62.10
2022-07-28T08:25:53.675Z,61.80
2022-07-28T08:30:57.310Z,61.40
2022-07-28T08:36:01.148Z,60.90
2022-07-28T08:41:08.057Z,60.50
2022-07-28T08:46:12.500Z,59.90
2022-07-28T08:51:16.769Z,59.00
2022-07-28T08:56:21.820Z,58.10
2022-07-28T09:01:25.927Z,57.40
2022-07-28T09:06:43.570Z,56.80
2022-07-28T09:11:48.645Z,56.30
2022-07-28T09:16:52.217Z,55.20
2022-07-28T09:21:57.271Z,54.10
2022-07-28T09:27:07.835Z,53.30
2022-07-28T09:32:13.826Z,52.90
2022-07-28T09:37:26.799Z,52.40
2022-07-28T09:42:47.425Z,52.20
2022-07-28T09:47:51.315Z,51.80
2022-07-28T09:52:54.879Z,51.10
2022-07-28T09:57:59.911Z,49.90
2022-07-28T10:03:05.740Z,49.20
2022-07-28T10:08:09.156Z,48.80
2022-07-28T10:13:14.354Z,48.10
2022-07-28T10:18:18.126Z,47.90
2022-07-28T10:23:22.805Z,47.60
2022-07-28T10:28:29.363Z,47.70
2022-07-28T10:33:34.429Z,47.70
2022-07-28T10:38:38.501Z,47.00
2022-07-28T10:44:10.820Z,46.70
2022-07-28T10:49:09.883Z,46.20
2022-07-28T10:54:25.205Z,45.40
2022-07-28T11:00:12.295Z,44.50
2022-07-28T11:05:31.477Z,43.80
2022-07-28T11:10:46.633Z,43.60
2022-07-28T11:15:54.114Z,43.30
2022-07-28T11:21:10.961Z,43.30
2022-07-28T11:26:46.051Z,42.90
2022-07-28T11:32:05.169Z,42.90
2022-07-28T11:37:15.313Z,43.10
2022-07-28T11:42:26.131Z,42.90
2022-07-28T11:47:31.789Z,41.90
2022-07-28T11:52:35.523Z,41.40
2022-07-28T11:57:44.142Z,40.80
2022-07-28T12:02:49.647Z,40.30
2022-07-28T12:07:53.685Z,40.20
2022-07-28T12:12:58.492Z,40.00
2022-07-28T12:18:04.018Z,39.80
2022-07-28T12:23:10.338Z,39.00
2022-07-28T12:28:18.259Z,38.50
2022-07-28T12:33:29.757Z,38.40
2022-07-28T12:38:34.297Z,38.70
2022-07-28T12:43:38.041Z,38.90
2022-07-28T12:48:43.102Z,38.90
2022-07-28T12:53:52.267Z,38.20
2022-07-28T12:59:07.672Z,38.20
2022-07-28T13:04:13.015Z,38.20
2022-07-28T13:09:24.023Z,37.70
2022-07-28T13:14:40.390Z,37.10
2022-07-28T13:19:45.757Z,37.00
2022-07-28T13:24:49.374Z,37.60
2022-07-28T13:29:52.991Z,38.20
2022-07-28T13:34:57.976Z,38.90
2022-07-28T13:40:01.951Z,39.10
2022-07-28T13:45:05.618Z,38.80
2022-07-28T13:50:11.314Z,38.60
2022-07-28T13:55:16.082Z,38.70
2022-07-28T14:00:24.383Z,38.60
2022-07-28T14:05:32.163Z,38.60
2022-07-28T14:10:37.254Z,38.60
2022-07-28T14:15:41.590Z,38.60
2022-07-28T14:20:46.684Z,38.60
2022-07-28T14:25:51.007Z,38.30
2022-07-28T14:30:54.696Z,38.10
2022-07-28T14:36:00.017Z,38.10
2022-07-28T14:41:03.639Z,38.30
2022-07-28T14:46:16.399Z,38.50
2022-07-28T14:51:25.930Z,38.40
2022-07-28T14:56:29.553Z,38.50
2022-07-28T15:01:36.029Z,38.60
2022-07-28T15:06:41.768Z,38.70
2022-07-28T15:11:47.333Z,39.10
2022-07-28T15:16:51.369Z,39.50
2022-07-28T15:21:56.140Z,40.00
2022-07-28T15:27:01.099Z,40.30
2022-07-28T15:32:07.481Z,40.60
2022-07-28T15:37:16.058Z,40.80
2022-07-28T15:42:19.704Z,41.10
2022-07-28T15:47:24.049Z,41.40
2022-07-28T15:52:29.305Z,41.50
2022-07-28T15:57:38.116Z,41.60
2022-07-28T16:02:41.977Z,41.50
2022-07-28T16:07:47.004Z,41.60
2022-07-28T16:12:51.203Z,41.70
2022-07-28T16:17:54.878Z,41.90
2022-07-28T16:22:59.933Z,41.90
2022-07-28T16:28:04.956Z,41.90
2022-07-28T16:33:08.736Z,41.90
2022-07-28T16:38:14.046Z,41.90
2022-07-28T16:43:17.666Z,42.20
2022-07-28T16:48:21.573Z,42.40
2022-07-28T16:53:26.637Z,42.60
2022-07-28T16:58:30.264Z,42.60
2022-07-28T17:03:34.748Z,42.70
2022-07-28T17:08:39.473Z,42.60
2022-07-28T17:13:45.346Z,42.70
2022-07-28T17:18:49.190Z,42.80
2022-07-28T17:23:54.158Z,43.00
2022-07-28T17:28:58.377Z,43.10
2022-07-28T17:34:02.325Z,43.20
2022-07-28T17:39:08.038Z,43.30
2022-07-28T17:44:11.798Z,43.40
2022-07-28T17:49:15.734Z,43.40
2022-07-28T17:54:24.935Z,43.40
2022-07-28T17:59:35.915Z,43.50
2022-07-28T18:04:53.136Z,43.60
2022-07-28T18:09:58.084Z,43.70
2022-07-28T18:15:04.061Z,43.80
2022-07-28T18:20:08.817Z,43.80
2022-07-28T18:25:13.713Z,43.90
2022-07-28T18:30:18.069Z,44.00
2022-07-28T18:35:22.016Z,44.10
2022-07-28T18:40:27.010Z,44.30
2022-07-28T18:45:30.620Z,44.30
2022-07-28T18:50:34.179Z,44.50
2022-07-28T18:55:45.601Z,44.60
2022-07-28T19:00:49.361Z,44.90
2022-07-28T19:05:54.368Z,45.00
2022-07-28T19:10:59.326Z,45.10
2022-07-28T19:16:03.156Z,45.30
2022-07-28T19:21:08.070Z,45.40
2022-07-28T19:26:12.985Z,45.50
2022-07-28T19:31:16.793Z,45.60
2022-07-28T19:36:22.307Z,45.80
2022-07-28T19:41:28.290Z,45.80
2022-07-28T19:46:31.924Z,46.00
2022-07-28T19:51:35.549Z,46.10
2022-07-28T19:56:41.927Z,46.20
2022-07-28T20:01:46.843Z,46.30
2022-07-28T20:06:55.717Z,46.40
2022-07-28T20:12:00.850Z,46.50
2022-07-28T20:17:04.603Z,46.60
2022-07-28T20:22:08.233Z,46.70
2022-07-28T20:27:13.352Z,46.90
2022-07-28T20:32:16.926Z,47.10
2022-07-28T20:37:35.956Z,47.20
2022-07-28T20:42:42.115Z,47.40
2022-07-28T20:47:45.785Z,47.50
2022-07-28T20:52:49.345Z,47.50
2022-07-28T20:57:55.923Z,47.70
2022-07-28T21:03:00.578Z,47.80
2022-07-28T21:08:09.271Z,47.90
2022-07-28T21:13:21.158Z,47.90
2022-07-28T21:18:25.060Z,48.10
2022-07-28T21:23:28.636Z,48.40
2022-07-28T21:28:51.439Z,48.60
2022-07-28T21:33:55.535Z,48.70
2022-07-28T21:38:59.165Z,48.80
2022-07-28T21:44:04.353Z,48.90
2022-07-28T21:49:08.013Z,49.00
2022-07-28T21:54:11.885Z,49.30
2022-07-28T21:59:16.881Z,49.40
2022-07-28T22:04:21.170Z,49.70
2022-07-28T22:09:25.084Z,49.90
2022-07-28T22:14:32.311Z,50.10
2022-07-28T22:19:35.997Z,50.50
2022-07-28T22:24:39.608Z,50.70
2022-07-28T22:29:51.554Z,50.90
2022-07-28T22:34:55.945Z,51.20
2022-07-28T22:39:59.525Z,51.40
2022-07-28T22:45:05.122Z,51.50
2022-07-28T22:50:10.517Z,51.70
2022-07-28T23:00:37.194Z,52.20
2022-07-28T23:05:40.995Z,52.30
2022-07-28T23:10:44.714Z,52.50
2022-07-28T23:15:50.474Z,52.80
2022-07-28T23:20:54.183Z,52.80
2022-07-28T23:25:57.871Z,52.90
2022-07-28T23:31:03.076Z,53.10
2022-07-28T23:36:09.660Z,53.30
2022-07-28T23:41:20.778Z,53.40
2022-07-28T23:46:26.046Z,53.80
2022-07-28T23:51:32.077Z,54.10
2022-07-28T23:56:52.468Z,54.30
